createdAt,value
2019-03-11T00:00:09.430Z,7.20
2019-03-11T00:02:38.552Z,9.80
2019-03-11T00:05:06.895Z,8.47
2019-03-11T00:07:34.984Z,6.77
2019-03-11T00:10:03.193Z,9.60
2019-03-11T00:12:31.400Z,11.80
2019-03-11T00:14:59.600Z,6.30
2019-03-11T00:17:27.783Z,13.03
2019-03-11T00:19:56.001Z,7.67
2019-03-11T00:22:24.116Z,6.73
2019-03-11T00:24:52.264Z,9.10
2019-03-11T00:27:20.430Z,12.87
2019-03-11T00:29:49.457Z,10.27
2019-03-11T00:32:17.758Z,8.80
2019-03-11T00:34:45.828Z,3.20
2019-03-11T00:37:13.905Z,7.77
2019-03-11T00:39:42.009Z,9.43
2019-03-11T00:42:10.079Z,7.80
2019-03-11T00:44:38.211Z,10.50
2019-03-11T00:47:06.285Z,8.90
2019-03-11T00:49:34.505Z,11.57
2019-03-11T00:52:02.574Z,11.30
2019-03-11T00:54:30.636Z,6.07
2019-03-11T00:56:58.730Z,8.73
2019-03-11T00:59:27.683Z,5.47
2019-03-11T01:01:55.795Z,4.37
2019-03-11T01:04:23.864Z,6.40
2019-03-11T01:06:51.967Z,8.87
2019-03-11T01:09:20.031Z,7.13
2019-03-11T01:11:48.103Z,11.60
2019-03-11T01:14:16.251Z,3.20
2019-03-11T01:16:44.335Z,9.83
2019-03-11T01:19:12.427Z,3.67
2019-03-11T01:21:40.522Z,8.93
2019-03-11T01:24:08.608Z,6.33
2019-03-11T01:26:36.659Z,11.63
2019-03-11T01:29:05.193Z,4.73
2019-03-11T01:31:34.092Z,4.90
2019-03-11T01:34:02.423Z,8.60
2019-03-11T01:36:30.511Z,4.83
2019-03-11T01:38:58.611Z,5.03
2019-03-11T01:41:26.787Z,8.80
2019-03-11T01:43:54.949Z,6.40
2019-03-11T01:46:23.005Z,6.77
2019-03-11T01:48:51.076Z,7.80
2019-03-11T01:51:19.178Z,10.17
2019-03-11T01:53:47.342Z,3.90
2019-03-11T01:56:15.448Z,6.77
2019-03-11T01:58:43.552Z,6.47
2019-03-11T02:01:11.679Z,3.80
2019-03-11T02:03:39.781Z,12.40
2019-03-11T02:06:07.946Z,3.80
2019-03-11T02:08:36.069Z,5.27
2019-03-11T02:11:04.309Z,6.93
2019-03-11T02:13:32.379Z,5.63
2019-03-11T02:16:00.481Z,4.00
2019-03-11T02:18:28.546Z,8.40
2019-03-11T02:20:57.248Z,8.77
2019-03-11T02:23:26.322Z,8.07
2019-03-11T02:25:54.598Z,8.60
2019-03-11T02:28:22.809Z,8.23
2019-03-11T02:30:50.869Z,4.73
2019-03-11T02:33:19.290Z,8.17
2019-03-11T02:35:47.381Z,6.20
2019-03-11T02:38:15.443Z,7.73
2019-03-11T02:40:43.560Z,14.37
2019-03-11T02:43:11.620Z,11.30
2019-03-11T02:45:39.720Z,7.73
2019-03-11T02:48:07.780Z,8.00
2019-03-11T02:50:35.944Z,5.77
2019-03-11T02:53:04.608Z,8.33
2019-03-11T02:55:32.754Z,9.00
2019-03-11T02:58:00.800Z,8.03
2019-03-11T03:00:28.898Z,9.03
2019-03-11T03:03:18.776Z,6.23
2019-03-11T03:05:50.560Z,11.33
2019-03-11T03:08:18.630Z,6.90
2019-03-11T03:10:46.719Z,6.03
2019-03-11T03:13:14.870Z,6.27
2019-03-11T03:15:42.994Z,9.47
2019-03-11T03:18:11.169Z,12.90
2019-03-11T03:20:39.300Z,12.60
2019-03-11T03:23:07.365Z,6.63
2019-03-11T03:25:35.478Z,9.87
2019-03-11T03:28:03.807Z,9.77
2019-03-11T03:30:32.694Z,7.23
2019-03-11T03:33:02.085Z,13.13
2019-03-11T03:35:30.087Z,8.13
2019-03-11T03:37:58.182Z,7.77
2019-03-11T03:40:26.519Z,12.47
2019-03-11T03:42:54.652Z,9.87
2019-03-11T03:45:30.583Z,6.37
2019-03-11T03:47:59.037Z,7.93
2019-03-11T03:50:27.340Z,8.17
2019-03-11T03:52:55.463Z,8.03
2019-03-11T03:55:23.552Z,11.07
2019-03-11T03:57:51.654Z,7.50
2019-03-11T04:00:21.705Z,6.53
2019-03-11T04:02:49.785Z,9.37
2019-03-11T04:05:17.849Z,9.57
2019-03-11T04:07:45.913Z,10.90
2019-03-11T04:10:16.837Z,7.43
2019-03-11T04:12:44.973Z,7.77
2019-03-11T04:15:13.171Z,7.90
2019-03-11T04:17:41.470Z,7.87
2019-03-11T04:20:10.762Z,5.63
2019-03-11T04:22:38.933Z,10.37
2019-03-11T04:25:07.290Z,11.53
2019-03-11T04:27:35.396Z,9.60
2019-03-11T04:30:03.811Z,9.50
2019-03-11T04:32:31.937Z,10.87
2019-03-11T04:35:00.039Z,9.33
2019-03-11T04:37:28.089Z,8.30
2019-03-11T04:39:56.147Z,7.13
2019-03-11T04:42:24.259Z,12.53
2019-03-11T04:44:52.759Z,10.67
2019-03-11T04:47:20.844Z,5.03
2019-03-11T04:49:48.934Z,4.20
2019-03-11T04:52:17.160Z,8.53
2019-03-11T04:54:45.231Z,9.63
2019-03-11T04:57:13.279Z,7.27
2019-03-11T04:59:41.671Z,7.67
2019-03-11T05:02:09.747Z,5.53
2019-03-11T05:04:37.799Z,8.40
2019-03-11T05:07:05.919Z,6.17
2019-03-11T05:09:33.958Z,7.73
2019-03-11T05:12:02.033Z,5.50
2019-03-11T05:14:30.099Z,7.73
2019-03-11T05:16:58.476Z,5.37
2019-03-11T05:19:26.743Z,6.93
2019-03-11T05:21:54.808Z,9.00
2019-03-11T05:24:22.914Z,8.97
2019-03-11T05:26:50.998Z,6.20
2019-03-11T05:29:19.097Z,7.77
2019-03-11T05:31:47.233Z,10.77
2019-03-11T05:34:15.388Z,8.20
2019-03-11T05:36:43.549Z,6.20
2019-03-11T05:39:11.611Z,7.23
2019-03-11T05:41:39.667Z,6.67
2019-03-11T05:44:07.760Z,6.80
2019-03-11T05:46:36.262Z,6.53
2019-03-11T05:49:04.303Z,5.23
2019-03-11T05:51:32.424Z,7.67
2019-03-11T05:54:00.524Z,5.20
2019-03-11T05:56:32.606Z,7.97
2019-03-11T05:59:00.710Z,6.40
2019-03-11T06:01:28.972Z,5.07
2019-03-11T06:03:57.070Z,14.73
2019-03-11T06:06:25.153Z,8.67
2019-03-11T06:08:53.246Z,9.57
2019-03-11T06:11:21.603Z,8.67
2019-03-11T06:13:49.663Z,4.57
2019-03-11T06:16:17.746Z,8.83
2019-03-11T06:18:48.871Z,5.57
2019-03-11T06:21:34.442Z,6.93
2019-03-11T06:24:02.622Z,7.60
2019-03-11T06:26:30.847Z,6.40
2019-03-11T06:28:58.950Z,10.83
2019-03-11T06:31:27.099Z,7.63
2019-03-11T06:33:55.191Z,10.60
2019-03-11T06:36:23.519Z,8.67
2019-03-11T06:38:51.678Z,5.63
2019-03-11T06:41:19.758Z,12.10
2019-03-11T06:43:47.944Z,7.40
2019-03-11T06:46:16.044Z,9.00
2019-03-11T06:48:44.171Z,5.90
2019-03-11T06:51:12.603Z,10.10
2019-03-11T06:53:40.683Z,10.93
2019-03-11T06:56:08.757Z,12.23
2019-03-11T06:58:36.961Z,7.90
2019-03-11T07:01:05.018Z,8.97
2019-03-11T07:03:33.196Z,10.53
2019-03-11T07:06:02.389Z,6.90
2019-03-11T07:08:30.567Z,10.07
2019-03-11T07:10:58.840Z,12.33
2019-03-11T07:13:26.944Z,8.23
2019-03-11T07:15:55.039Z,10.87
2019-03-11T07:18:23.126Z,14.83
2019-03-11T07:20:51.336Z,9.40
2019-03-11T07:23:19.495Z,12.80
2019-03-11T07:25:47.568Z,13.57
2019-03-11T07:28:15.685Z,11.27
2019-03-11T07:30:43.859Z,14.03
2019-03-11T07:33:12.085Z,13.57
2019-03-11T07:35:40.238Z,15.53
2019-03-11T07:38:08.340Z,10.93
2019-03-11T07:40:36.454Z,12.23
2019-03-11T07:43:04.629Z,8.47
2019-03-11T07:45:32.720Z,5.90
2019-03-11T07:48:00.905Z,10.40
2019-03-11T07:50:29.218Z,8.93
2019-03-11T07:52:57.522Z,11.80
2019-03-11T07:55:25.576Z,11.83
2019-03-11T07:57:53.658Z,17.43
2019-03-11T08:00:22.367Z,9.27
2019-03-11T08:02:50.472Z,9.37
2019-03-11T08:05:20.060Z,5.80
2019-03-11T08:07:48.179Z,7.70
2019-03-11T08:10:19.621Z,12.50
2019-03-11T08:12:47.884Z,8.50
2019-03-11T08:15:16.128Z,7.67
2019-03-11T08:17:44.311Z,3.57
2019-03-11T08:20:15.189Z,6.70
2019-03-11T08:22:43.522Z,8.53
2019-03-11T08:25:11.590Z,9.80
2019-03-11T08:27:39.788Z,7.50
2019-03-11T08:30:08.453Z,11.60
2019-03-11T08:32:36.856Z,9.20
2019-03-11T08:35:06.247Z,7.57
2019-03-11T08:37:34.359Z,11.40
2019-03-11T08:40:02.417Z,7.27
2019-03-11T08:42:30.622Z,9.53
2019-03-11T08:44:58.697Z,10.27
2019-03-11T08:47:26.944Z,12.47
2019-03-11T08:49:55.032Z,14.20
2019-03-11T08:52:23.126Z,8.73
2019-03-11T08:54:51.225Z,10.50
2019-03-11T08:57:19.454Z,13.83
2019-03-11T08:59:47.620Z,11.20
2019-03-11T09:02:16.207Z,11.13
2019-03-11T09:04:44.608Z,11.77
2019-03-11T09:07:12.728Z,10.87
2019-03-11T09:09:40.805Z,10.83
2019-03-11T09:12:08.928Z,11.37
2019-03-11T09:14:37.042Z,9.37
2019-03-11T09:17:05.157Z,8.83
2019-03-11T09:19:33.264Z,8.57
2019-03-11T09:22:01.611Z,11.77
2019-03-11T09:24:29.662Z,10.20
2019-03-11T09:26:57.726Z,13.77
2019-03-11T09:29:26.230Z,12.30
2019-03-11T09:31:54.387Z,12.57
2019-03-11T09:34:22.462Z,11.10
2019-03-11T09:36:50.561Z,10.40
2019-03-11T09:39:18.848Z,13.00
2019-03-11T09:41:46.970Z,10.13
2019-03-11T09:44:15.028Z,12.63
2019-03-11T09:46:43.175Z,12.07
2019-03-11T09:49:11.285Z,11.43
2019-03-11T09:51:39.369Z,13.90
2019-03-11T09:54:07.434Z,17.10
2019-03-11T09:56:43.311Z,12.07
2019-03-11T09:59:06.559Z,17.93
2019-03-11T10:01:34.624Z,13.10
2019-03-11T10:04:02.759Z,13.30
2019-03-11T10:06:30.866Z,10.27
2019-03-11T10:08:58.960Z,15.80
2019-03-11T10:11:27.059Z,17.87
2019-03-11T10:13:55.222Z,12.93
2019-03-11T10:16:23.329Z,16.80
2019-03-11T10:18:51.837Z,9.53
2019-03-11T10:21:19.913Z,6.90
2019-03-11T10:23:48.294Z,14.67
2019-03-11T10:26:16.360Z,19.10
2019-03-11T10:28:44.443Z,10.27
2019-03-11T10:31:12.536Z,12.87
2019-03-11T10:33:40.651Z,14.57
2019-03-11T10:36:08.713Z,13.23
2019-03-11T10:38:36.919Z,7.07
2019-03-11T10:41:04.984Z,13.47
2019-03-11T10:43:33.091Z,7.40
2019-03-11T10:46:01.296Z,8.07
2019-03-11T10:48:37.127Z,11.97
2019-03-11T10:50:59.234Z,11.00
2019-03-11T10:53:27.541Z,17.27
2019-03-11T10:55:55.617Z,10.17
2019-03-11T10:58:24.974Z,10.67
2019-03-11T11:00:53.225Z,7.80
2019-03-11T11:03:21.324Z,6.97
2019-03-11T11:05:49.455Z,7.33
2019-03-11T11:08:17.523Z,8.20
2019-03-11T11:10:45.720Z,8.93
2019-03-11T11:13:13.802Z,10.90
2019-03-11T11:15:41.968Z,5.40
2019-03-11T11:18:10.028Z,7.87
2019-03-11T11:20:38.167Z,6.07
2019-03-11T11:23:06.384Z,9.17
2019-03-11T11:25:34.465Z,6.73
2019-03-11T11:28:02.591Z,5.33
2019-03-11T11:30:30.827Z,4.40
2019-03-11T11:32:58.944Z,9.80
2019-03-11T11:35:27.018Z,6.80
2019-03-11T11:37:55.231Z,8.60
2019-03-11T11:40:23.705Z,9.10
2019-03-11T11:42:52.018Z,10.73
2019-03-11T11:45:20.368Z,8.47
2019-03-11T11:47:48.488Z,13.37
2019-03-11T11:50:19.884Z,5.87
2019-03-11T11:52:47.899Z,9.17
2019-03-11T11:55:15.999Z,11.60
2019-03-11T11:57:44.430Z,8.57
2019-03-11T12:00:15.168Z,9.57
2019-03-11T12:02:43.266Z,9.63
2019-03-11T12:05:12.087Z,5.87
2019-03-11T12:07:40.162Z,13.20
2019-03-11T12:10:09.288Z,11.60
2019-03-11T12:12:37.496Z,12.20
2019-03-11T12:15:05.795Z,13.37
2019-03-11T12:17:34.017Z,13.73
2019-03-11T12:20:02.186Z,7.37
2019-03-11T12:22:30.366Z,8.00
2019-03-11T12:24:58.608Z,10.53
2019-03-11T12:27:26.673Z,13.93
2019-03-11T12:29:54.736Z,12.47
2019-03-11T12:32:26.208Z,10.13
2019-03-11T12:34:54.333Z,11.80
2019-03-11T12:37:22.492Z,12.30
2019-03-11T12:39:50.692Z,9.43
2019-03-11T12:42:18.779Z,10.87
2019-03-11T12:44:48.295Z,15.67
2019-03-11T12:47:16.534Z,11.67
2019-03-11T12:49:44.614Z,10.40
2019-03-11T12:52:12.707Z,10.93
2019-03-11T12:54:40.822Z,11.97
2019-03-11T12:57:08.922Z,10.17
2019-03-11T12:59:40.624Z,14.10
2019-03-11T13:02:06.945Z,9.23
2019-03-11T13:04:35.076Z,16.10
2019-03-11T13:07:03.273Z,11.10
2019-03-11T13:09:31.422Z,12.80
2019-03-11T13:11:59.563Z,12.20
2019-03-11T13:14:27.669Z,9.93
2019-03-11T13:16:55.747Z,15.07
2019-03-11T13:19:24.344Z,14.13
2019-03-11T13:21:52.516Z,13.97
2019-03-11T13:24:20.593Z,11.30
2019-03-11T13:26:48.715Z,13.83
2019-03-11T13:29:16.787Z,14.30
2019-03-11T13:31:44.924Z,11.13
2019-03-11T13:34:12.975Z,9.47
2019-03-11T13:36:42.125Z,13.83
2019-03-11T13:39:10.729Z,12.87
2019-03-11T13:41:38.836Z,10.27
2019-03-11T13:44:06.952Z,12.87
2019-03-11T13:46:35.033Z,6.97
2019-03-11T13:49:03.134Z,8.90
2019-03-11T13:51:31.200Z,7.20
2019-03-11T13:53:59.473Z,11.10
2019-03-11T13:56:27.544Z,11.93
2019-03-11T13:58:55.636Z,7.10
2019-03-11T14:01:23.767Z,10.67
2019-03-11T14:03:51.888Z,12.43
2019-03-11T14:06:19.954Z,12.97
2019-03-11T14:08:48.039Z,12.23
2019-03-11T14:11:16.162Z,8.80
2019-03-11T14:13:44.244Z,9.67
2019-03-11T14:16:12.431Z,13.60
2019-03-11T14:18:40.716Z,8.90
2019-03-11T14:21:08.966Z,12.37
2019-03-11T14:23:37.058Z,13.50
2019-03-11T14:26:05.169Z,12.30
2019-03-11T14:28:33.257Z,8.77
2019-03-11T14:31:04.411Z,12.10
2019-03-11T14:33:32.483Z,13.13
2019-03-11T14:36:02.418Z,10.50
2019-03-11T14:38:30.492Z,10.63
2019-03-11T14:40:58.674Z,12.37
2019-03-11T14:43:26.781Z,10.60
2019-03-11T14:45:54.849Z,7.50
2019-03-11T14:48:22.960Z,5.90
2019-03-11T14:50:51.015Z,11.47
2019-03-11T14:53:19.017Z,10.43
2019-03-11T14:55:47.118Z,20.57
2019-03-11T14:58:15.294Z,10.83
2019-03-11T15:00:43.421Z,13.27
2019-03-11T15:03:11.497Z,17.20
2019-03-11T15:05:39.605Z,8.20
2019-03-11T15:08:07.700Z,12.67
2019-03-11T15:10:35.829Z,9.73
2019-03-11T15:13:03.927Z,7.00
2019-03-11T15:15:32.047Z,5.63
2019-03-11T15:18:00.116Z,6.60
2019-03-11T15:20:28.892Z,7.83
2019-03-11T15:23:05.744Z,13.03
2019-03-11T15:25:26.865Z,8.10
2019-03-11T15:27:54.949Z,14.87
2019-03-11T15:30:23.295Z,8.87
2019-03-11T15:32:51.516Z,8.40
2019-03-11T15:35:19.559Z,9.83
2019-03-11T15:37:47.891Z,7.53
2019-03-11T15:40:16.207Z,7.67
2019-03-11T15:42:44.309Z,4.53
2019-03-11T15:45:13.188Z,12.03
2019-03-11T15:47:41.265Z,5.20
2019-03-11T15:50:11.768Z,8.40
2019-03-11T15:52:39.869Z,9.13
2019-03-11T15:55:08.427Z,9.07
2019-03-11T15:57:39.116Z,5.20
2019-03-11T16:00:06.836Z,3.87
2019-03-11T16:02:34.905Z,3.97
2019-03-11T16:05:03.104Z,3.30
2019-03-11T16:07:31.184Z,5.57
2019-03-11T16:09:59.396Z,2.17
2019-03-11T16:12:27.542Z,4.17
2019-03-11T16:14:55.613Z,6.33
2019-03-11T16:17:23.792Z,7.87
2019-03-11T16:19:52.060Z,5.40
2019-03-11T16:22:25.161Z,9.67
2019-03-11T16:24:50.608Z,9.07
2019-03-11T16:27:18.694Z,5.43
2019-03-11T16:29:46.899Z,7.07
2019-03-11T16:32:15.061Z,7.60
2019-03-11T16:34:43.135Z,4.97
2019-03-11T16:37:11.358Z,4.60
2019-03-11T16:39:39.425Z,5.40
2019-03-11T16:42:07.530Z,6.23
2019-03-11T16:44:35.648Z,4.70
2019-03-11T16:47:03.752Z,3.07
2019-03-11T16:49:32.023Z,7.73
2019-03-11T16:52:00.233Z,5.07
2019-03-11T16:54:28.331Z,8.53
2019-03-11T16:56:56.411Z,7.13
2019-03-11T16:59:24.623Z,9.03
2019-03-11T17:01:52.687Z,4.87
2019-03-11T17:04:20.811Z,9.10
2019-03-11T17:06:48.985Z,8.20
2019-03-11T17:09:17.205Z,7.03
2019-03-11T17:11:45.300Z,7.50
2019-03-11T17:14:13.428Z,8.23
2019-03-11T17:16:41.554Z,7.77
2019-03-11T17:19:09.647Z,7.33
2019-03-11T17:21:37.740Z,3.83
2019-03-11T17:24:05.875Z,5.43
2019-03-11T17:26:33.977Z,6.80
2019-03-11T17:29:02.088Z,6.27
2019-03-11T17:31:30.259Z,8.53
2019-03-11T17:33:58.368Z,5.90
2019-03-11T17:36:26.455Z,5.00
2019-03-11T17:38:54.576Z,6.90
2019-03-11T17:41:22.703Z,6.50
2019-03-11T17:43:50.797Z,7.37
2019-03-11T17:46:19.082Z,3.73
2019-03-11T17:48:47.141Z,5.47
2019-03-11T17:51:15.293Z,4.37
2019-03-11T17:53:43.351Z,6.77
2019-03-11T17:56:11.595Z,4.60
2019-03-11T17:58:39.784Z,8.40
2019-03-11T18:01:08.034Z,10.70
2019-03-11T18:03:36.666Z,4.43
2019-03-11T18:06:11.760Z,4.57
2019-03-11T18:08:34.637Z,8.50
2019-03-11T18:11:02.946Z,11.17
2019-03-11T18:13:31.146Z,9.73
2019-03-11T18:15:59.281Z,6.90
2019-03-11T18:18:33.058Z,6.13
2019-03-11T18:20:59.625Z,11.50
2019-03-11T18:23:27.194Z,11.43
2019-03-11T18:25:55.284Z,7.97
2019-03-11T18:28:23.389Z,14.60
2019-03-11T18:30:51.859Z,8.90
2019-03-11T18:33:20.090Z,12.43
2019-03-11T18:35:48.520Z,9.93
2019-03-11T18:38:16.657Z,14.17
2019-03-11T18:40:44.827Z,11.90
2019-03-11T18:43:20.507Z,10.97
2019-03-11T18:45:42.721Z,13.60
2019-03-11T18:48:10.858Z,9.93
2019-03-11T18:50:39.100Z,14.20
2019-03-11T18:53:07.170Z,13.10
2019-03-11T18:55:35.653Z,10.70
2019-03-11T18:58:04.096Z,12.23
2019-03-11T19:00:32.279Z,7.83
2019-03-11T19:03:00.984Z,10.57
2019-03-11T19:05:29.830Z,10.67
2019-03-11T19:07:58.117Z,12.00
2019-03-11T19:10:26.421Z,13.27
2019-03-11T19:12:54.657Z,12.33
2019-03-11T19:15:22.781Z,16.53
2019-03-11T19:17:51.131Z,16.87
2019-03-11T19:20:19.298Z,14.83
2019-03-11T19:22:49.117Z,6.43
2019-03-11T19:25:17.509Z,14.33
2019-03-11T19:27:46.413Z,17.77
2019-03-11T19:30:15.991Z,14.67
2019-03-11T19:32:44.176Z,11.47
2019-03-11T19:35:14.807Z,14.07
2019-03-11T19:37:45.296Z,15.73
2019-03-11T19:40:14.544Z,13.33
2019-03-11T19:42:42.931Z,15.63
2019-03-11T19:45:11.349Z,12.03
2019-03-11T19:47:39.667Z,10.90
2019-03-11T19:50:08.642Z,14.30
2019-03-11T19:52:37.418Z,11.77
2019-03-11T19:55:05.939Z,17.93
2019-03-11T19:57:34.358Z,13.93
2019-03-11T20:00:02.619Z,16.43
2019-03-11T20:02:30.863Z,16.93
2019-03-11T20:04:59.119Z,14.40
2019-03-11T20:07:30.294Z,10.93
2019-03-11T20:09:58.090Z,11.10
2019-03-11T20:12:27.352Z,12.70
2019-03-11T20:14:55.902Z,12.67
2019-03-11T20:17:24.868Z,15.90
2019-03-11T20:19:53.519Z,13.70
2019-03-11T20:22:24.119Z,18.87
2019-03-11T20:24:52.416Z,21.97
2019-03-11T20:27:21.025Z,17.90
2019-03-11T20:29:49.376Z,15.67
2019-03-11T20:32:17.536Z,15.60
2019-03-11T20:34:46.007Z,14.30
2019-03-11T20:37:14.904Z,20.17
2019-03-11T20:39:43.242Z,11.07
2019-03-11T20:42:11.683Z,14.50
2019-03-11T20:44:39.904Z,13.23
2019-03-11T20:47:08.319Z,14.73
2019-03-11T20:49:36.802Z,13.93
2019-03-11T20:52:06.173Z,13.40
2019-03-11T20:54:34.373Z,15.10
2019-03-11T20:57:03.448Z,14.13
2019-03-11T20:59:31.942Z,15.57
2019-03-11T21:02:00.588Z,11.00
2019-03-11T21:04:28.758Z,16.87
2019-03-11T21:06:57.139Z,15.70
2019-03-11T21:09:25.984Z,15.40
2019-03-11T21:11:54.837Z,12.73
2019-03-11T21:14:23.427Z,19.00
2019-03-11T21:16:51.582Z,15.47
2019-03-11T21:19:19.820Z,15.07
2019-03-11T21:21:48.103Z,12.00
2019-03-11T21:24:16.446Z,16.60
2019-03-11T21:26:44.594Z,13.00
2019-03-11T21:29:12.814Z,25.50
2019-03-11T21:31:41.052Z,21.63
2019-03-11T21:34:10.013Z,19.07
2019-03-11T21:36:38.441Z,15.70
2019-03-11T21:39:06.938Z,14.17
2019-03-11T21:41:35.131Z,15.90
2019-03-11T21:44:03.275Z,17.47
2019-03-11T21:46:31.373Z,16.23
2019-03-11T21:48:59.575Z,18.30
2019-03-11T21:51:27.847Z,14.30
2019-03-11T21:53:56.842Z,21.37
2019-03-11T21:56:25.056Z,23.77
2019-03-11T21:58:53.381Z,22.60
2019-03-11T22:01:21.719Z,20.80
2019-03-11T22:03:49.913Z,19.47
2019-03-11T22:06:17.980Z,15.20
2019-03-11T22:08:46.080Z,13.33
2019-03-11T22:11:14.140Z,17.13
2019-03-11T22:13:42.210Z,15.97
2019-03-11T22:16:10.332Z,17.40
2019-03-11T22:18:38.607Z,15.10
2019-03-11T22:21:06.682Z,19.83
2019-03-11T22:23:34.750Z,21.97
2019-03-11T22:26:04.712Z,20.97
2019-03-11T22:28:34.544Z,15.40
2019-03-11T22:31:03.271Z,14.63
2019-03-11T22:33:31.357Z,20.97
2019-03-11T22:35:59.486Z,18.63
2019-03-11T22:38:27.599Z,25.13
2019-03-11T22:40:55.719Z,15.17
2019-03-11T22:43:23.792Z,17.90
2019-03-11T22:45:51.882Z,25.00
2019-03-11T22:48:21.044Z,21.10
2019-03-11T22:50:49.305Z,26.50
2019-03-11T22:53:17.535Z,19.30
2019-03-11T22:55:45.725Z,17.83
2019-03-11T22:58:13.825Z,25.77
2019-03-11T23:00:54.837Z,25.27
2019-03-11T23:03:23.515Z,18.40
2019-03-11T23:05:58.204Z,27.10
2019-03-11T23:08:22.127Z,23.37
2019-03-11T23:10:50.263Z,27.90
2019-03-11T23:13:18.419Z,19.17
2019-03-11T23:15:46.490Z,20.97
2019-03-11T23:18:14.680Z,16.07
2019-03-11T23:20:42.912Z,15.93
2019-03-11T23:23:11.088Z,17.77
2019-03-11T23:25:39.167Z,16.57
2019-03-11T23:28:07.348Z,19.07
2019-03-11T23:30:35.658Z,14.03
2019-03-11T23:33:03.829Z,19.93
2019-03-11T23:35:31.935Z,11.63
2019-03-11T23:38:00.036Z,22.13
2019-03-11T23:40:28.119Z,20.77
2019-03-11T23:42:56.355Z,22.93
2019-03-11T23:45:24.519Z,23.93
2019-03-11T23:47:52.580Z,23.37
2019-03-11T23:50:20.691Z,23.53
2019-03-11T23:52:48.780Z,15.10
2019-03-11T23:55:17.030Z,18.27
2019-03-11T23:57:45.156Z,19.10
